sensor_id;sensor_type;location;lat;lon;timestamp;P1;durP1;ratioP1;P2;durP2;ratioP2
12900;SDS011;6518;50.930;5.344;2023-05-10T00:02:00;10.83;;;9.73;;
12900;SDS011;6518;50.930;5.344;2023-05-10T00:04:27;10.93;;;8.77;;
12900;SDS011;6518;50.930;5.344;2023-05-10T00:06:54;9.40;;;8.40;;
12900;SDS011;6518;50.930;5.344;2023-05-10T00:09:21;10.53;;;8.80;;
12900;SDS011;6518;50.930;5.344;2023-05-10T00:11:48;14.07;;;9.63;;
12900;SDS011;6518;50.930;5.344;2023-05-10T00:14:15;10.37;;;9.27;;
12900;SDS011;6518;50.930;5.344;2023-05-10T00:16:42;10.80;;;8.63;;
12900;SDS011;6518;50.930;5.344;2023-05-10T00:19:10;9.93;;;8.93;;
12900;SDS011;6518;50.930;5.344;2023-05-10T00:21:37;9.73;;;8.73;;
12900;SDS011;6518;50.930;5.344;2023-05-10T00:24:04;9.83;;;8.50;;
12900;SDS011;6518;50.930;5.344;2023-05-10T00:26:31;10.50;;;8.70;;
12900;SDS011;6518;50.930;5.344;2023-05-10T00:28:58;13.80;;;9.30;;
12900;SDS011;6518;50.930;5.344;2023-05-10T00:31:25;10.63;;;9.30;;
12900;SDS011;6518;50.930;5.344;2023-05-10T00:33:52;11.97;;;9.40;;
12900;SDS011;6518;50.930;5.344;2023-05-10T00:36:20;9.77;;;8.80;;
12900;SDS011;6518;50.930;5.344;2023-05-10T00:38:47;9.97;;;8.60;;
12900;SDS011;6518;50.930;5.344;2023-05-10T00:41:14;10.20;;;9.17;;
12900;SDS011;6518;50.930;5.344;2023-05-10T00:43:41;12.20;;;9.40;;
12900;SDS011;6518;50.930;5.344;2023-05-10T00:46:08;12.60;;;9.70;;
12900;SDS011;6518;50.930;5.344;2023-05-10T00:48:35;10.57;;;9.47;;
12900;SDS011;6518;50.930;5.344;2023-05-10T00:51:03;10.77;;;9.27;;
12900;SDS011;6518;50.930;5.344;2023-05-10T00:53:32;10.13;;;8.70;;
12900;SDS011;6518;50.930;5.344;2023-05-10T00:56:00;9.60;;;8.53;;
12900;SDS011;6518;50.930;5.344;2023-05-10T00:58:28;13.07;;;9.37;;
12900;SDS011;6518;50.930;5.344;2023-05-10T01:00:56;13.00;;;9.03;;
12900;SDS011;6518;50.930;5.344;2023-05-10T01:03:24;13.10;;;9.50;;
12900;SDS011;6518;50.930;5.344;2023-05-10T01:05:51;12.07;;;9.67;;
12900;SDS011;6518;50.930;5.344;2023-05-10T01:08:18;10.77;;;9.33;;
12900;SDS011;6518;50.930;5.344;2023-05-10T01:10:46;13.33;;;9.80;;
12900;SDS011;6518;50.930;5.344;2023-05-10T01:13:14;12.70;;;9.53;;
12900;SDS011;6518;50.930;5.344;2023-05-10T01:15:56;13.47;;;9.00;;
12900;SDS011;6518;50.930;5.344;2023-05-10T01:18:24;11.27;;;9.50;;
12900;SDS011;6518;50.930;5.344;2023-05-10T01:20:54;12.80;;;8.60;;
12900;SDS011;6518;50.930;5.344;2023-05-10T01:23:31;12.40;;;9.03;;
12900;SDS011;6518;50.930;5.344;2023-05-10T01:26:26;11.23;;;9.23;;
12900;SDS011;6518;50.930;5.344;2023-05-10T01:29:11;11.77;;;9.20;;
12900;SDS011;6518;50.930;5.344;2023-05-10T01:31:58;11.37;;;9.13;;
12900;SDS011;6518;50.930;5.344;2023-05-10T01:34:39;14.10;;;9.60;;
12900;SDS011;6518;50.930;5.344;2023-05-10T01:37:13;12.80;;;9.90;;
12900;SDS011;6518;50.930;5.344;2023-05-10T01:39:44;13.77;;;9.63;;
12900;SDS011;6518;50.930;5.344;2023-05-10T01:42:16;16.77;;;9.40;;
12900;SDS011;6518;50.930;5.344;2023-05-10T01:44:49;15.57;;;9.93;;
12900;SDS011;6518;50.930;5.344;2023-05-10T01:47:25;16.13;;;10.20;;
12900;SDS011;6518;50.930;5.344;2023-05-10T01:50:01;13.43;;;9.63;;
12900;SDS011;6518;50.930;5.344;2023-05-10T01:52:32;15.63;;;10.17;;
12900;SDS011;6518;50.930;5.344;2023-05-10T01:55:04;16.73;;;10.30;;
12900;SDS011;6518;50.930;5.344;2023-05-10T01:57:34;14.10;;;10.57;;
12900;SDS011;6518;50.930;5.344;2023-05-10T02:00:05;13.63;;;9.23;;
12900;SDS011;6518;50.930;5.344;2023-05-10T02:02:36;15.63;;;9.93;;
12900;SDS011;6518;50.930;5.344;2023-05-10T02:05:05;14.07;;;10.33;;
12900;SDS011;6518;50.930;5.344;2023-05-10T02:07:34;13.33;;;10.33;;
12900;SDS011;6518;50.930;5.344;2023-05-10T02:10:02;16.23;;;10.83;;
12900;SDS011;6518;50.930;5.344;2023-05-10T02:12:32;14.60;;;10.63;;
12900;SDS011;6518;50.930;5.344;2023-05-10T02:15:02;14.33;;;10.57;;
12900;SDS011;6518;50.930;5.344;2023-05-10T02:17:32;16.03;;;10.33;;
12900;SDS011;6518;50.930;5.344;2023-05-10T02:20:00;15.93;;;10.87;;
12900;SDS011;6518;50.930;5.344;2023-05-10T02:22:29;19.60;;;10.53;;
12900;SDS011;6518;50.930;5.344;2023-05-10T02:24:57;12.73;;;10.00;;
12900;SDS011;6518;50.930;5.344;2023-05-10T02:27:25;16.40;;;10.23;;
12900;SDS011;6518;50.930;5.344;2023-05-10T02:29:55;14.17;;;10.50;;
12900;SDS011;6518;50.930;5.344;2023-05-10T02:32:24;13.70;;;10.30;;
12900;SDS011;6518;50.930;5.344;2023-05-10T02:34:52;13.13;;;10.50;;
12900;SDS011;6518;50.930;5.344;2023-05-10T02:37:22;16.07;;;10.17;;
12900;SDS011;6518;50.930;5.344;2023-05-10T02:39:50;15.57;;;10.57;;
12900;SDS011;6518;50.930;5.344;2023-05-10T02:42:19;17.50;;;10.93;;
12900;SDS011;6518;50.930;5.344;2023-05-10T02:44:50;19.33;;;10.90;;
12900;SDS011;6518;50.930;5.344;2023-05-10T02:47:20;15.87;;;11.10;;
12900;SDS011;6518;50.930;5.344;2023-05-10T02:49:47;20.17;;;11.37;;
12900;SDS011;6518;50.930;5.344;2023-05-10T02:52:14;18.43;;;11.03;;
12900;SDS011;6518;50.930;5.344;2023-05-10T02:54:48;16.40;;;10.33;;
12900;SDS011;6518;50.930;5.344;2023-05-10T02:57:20;18.07;;;11.10;;
12900;SDS011;6518;50.930;5.344;2023-05-10T02:59:58;14.47;;;10.70;;
12900;SDS011;6518;50.930;5.344;2023-05-10T03:02:26;15.37;;;10.50;;
12900;SDS011;6518;50.930;5.344;2023-05-10T03:04:55;17.63;;;11.57;;
12900;SDS011;6518;50.930;5.344;2023-05-10T03:07:22;15.87;;;11.07;;
12900;SDS011;6518;50.930;5.344;2023-05-10T03:09:51;14.83;;;10.13;;
12900;SDS011;6518;50.930;5.344;2023-05-10T03:12:20;15.93;;;10.77;;
12900;SDS011;6518;50.930;5.344;2023-05-10T03:14:55;17.57;;;10.83;;
12900;SDS011;6518;50.930;5.344;2023-05-10T03:17:29;18.67;;;10.93;;
12900;SDS011;6518;50.930;5.344;2023-05-10T03:20:02;18.07;;;10.60;;
12900;SDS011;6518;50.930;5.344;2023-05-10T03:22:34;14.73;;;10.73;;
12900;SDS011;6518;50.930;5.344;2023-05-10T03:25:06;18.67;;;11.43;;
12900;SDS011;6518;50.930;5.344;2023-05-10T03:27:35;18.50;;;11.50;;
12900;SDS011;6518;50.930;5.344;2023-05-10T03:30:03;20.40;;;12.10;;
12900;SDS011;6518;50.930;5.344;2023-05-10T03:32:34;18.60;;;12.00;;
12900;SDS011;6518;50.930;5.344;2023-05-10T03:35:01;19.47;;;12.03;;
12900;SDS011;6518;50.930;5.344;2023-05-10T03:37:32;21.33;;;12.03;;
12900;SDS011;6518;50.930;5.344;2023-05-10T03:39:59;19.67;;;12.13;;
12900;SDS011;6518;50.930;5.344;2023-05-10T03:42:27;19.37;;;11.83;;
12900;SDS011;6518;50.930;5.344;2023-05-10T03:44:54;18.33;;;12.07;;
12900;SDS011;6518;50.930;5.344;2023-05-10T03:47:21;16.67;;;12.07;;
12900;SDS011;6518;50.930;5.344;2023-05-10T03:49:48;22.00;;;13.70;;
12900;SDS011;6518;50.930;5.344;2023-05-10T03:52:15;21.33;;;13.23;;
12900;SDS011;6518;50.930;5.344;2023-05-10T03:54:42;19.37;;;12.77;;
12900;SDS011;6518;50.930;5.344;2023-05-10T03:57:08;21.07;;;13.70;;
12900;SDS011;6518;50.930;5.344;2023-05-10T03:59:37;21.73;;;13.63;;
12900;SDS011;6518;50.930;5.344;2023-05-10T04:02:04;17.87;;;13.43;;
12900;SDS011;6518;50.930;5.344;2023-05-10T04:04:30;22.97;;;13.87;;
12900;SDS011;6518;50.930;5.344;2023-05-10T04:06:57;20.00;;;13.73;;
12900;SDS011;6518;50.930;5.344;2023-05-10T04:09:24;20.93;;;14.00;;
12900;SDS011;6518;50.930;5.344;2023-05-10T04:11:51;31.60;;;15.03;;
12900;SDS011;6518;50.930;5.344;2023-05-10T04:14:19;20.73;;;13.20;;
12900;SDS011;6518;50.930;5.344;2023-05-10T04:16:47;18.17;;;13.83;;
12900;SDS011;6518;50.930;5.344;2023-05-10T04:19:15;21.03;;;14.67;;
12900;SDS011;6518;50.930;5.344;2023-05-10T04:21:42;18.30;;;13.77;;
12900;SDS011;6518;50.930;5.344;2023-05-10T04:24:09;20.83;;;14.27;;
12900;SDS011;6518;50.930;5.344;2023-05-10T04:26:36;21.40;;;15.40;;
12900;SDS011;6518;50.930;5.344;2023-05-10T04:29:03;19.03;;;14.37;;
12900;SDS011;6518;50.930;5.344;2023-05-10T04:31:29;20.63;;;14.43;;
12900;SDS011;6518;50.930;5.344;2023-05-10T04:33:58;23.30;;;15.50;;
12900;SDS011;6518;50.930;5.344;2023-05-10T04:36:25;20.03;;;14.50;;
12900;SDS011;6518;50.930;5.344;2023-05-10T04:38:52;23.07;;;15.40;;
12900;SDS011;6518;50.930;5.344;2023-05-10T04:41:19;19.73;;;14.70;;
12900;SDS011;6518;50.930;5.344;2023-05-10T04:43:46;20.80;;;15.20;;
12900;SDS011;6518;50.930;5.344;2023-05-10T04:46:14;21.50;;;15.63;;
12900;SDS011;6518;50.930;5.344;2023-05-10T04:48:41;21.77;;;15.27;;
12900;SDS011;6518;50.930;5.344;2023-05-10T04:51:09;25.07;;;16.13;;
12900;SDS011;6518;50.930;5.344;2023-05-10T04:53:37;24.70;;;16.77;;
12900;SDS011;6518;50.930;5.344;2023-05-10T04:56:04;23.43;;;15.53;;
12900;SDS011;6518;50.930;5.344;2023-05-10T04:58:32;24.40;;;15.63;;
12900;SDS011;6518;50.930;5.344;2023-05-10T05:01:04;21.63;;;15.40;;
12900;SDS011;6518;50.930;5.344;2023-05-10T05:03:32;27.03;;;16.90;;
12900;SDS011;6518;50.930;5.344;2023-05-10T05:05:59;23.23;;;16.03;;
12900;SDS011;6518;50.930;5.344;2023-05-10T05:08:27;27.63;;;16.40;;
12900;SDS011;6518;50.930;5.344;2023-05-10T05:10:54;23.83;;;16.97;;
12900;SDS011;6518;50.930;5.344;2023-05-10T05:13:21;27.53;;;17.67;;
12900;SDS011;6518;50.930;5.344;2023-05-10T05:15:48;26.93;;;16.73;;
12900;SDS011;6518;50.930;5.344;2023-05-10T05:18:15;27.23;;;18.70;;
12900;SDS011;6518;50.930;5.344;2023-05-10T05:20:42;28.43;;;18.63;;
12900;SDS011;6518;50.930;5.344;2023-05-10T05:23:09;31.50;;;19.37;;
12900;SDS011;6518;50.930;5.344;2023-05-10T05:25:38;28.60;;;18.83;;
12900;SDS011;6518;50.930;5.344;2023-05-10T05:28:04;29.57;;;18.73;;
12900;SDS011;6518;50.930;5.344;2023-05-10T05:30:31;29.97;;;19.83;;
12900;SDS011;6518;50.930;5.344;2023-05-10T05:32:58;31.13;;;19.33;;
12900;SDS011;6518;50.930;5.344;2023-05-10T05:35:25;28.63;;;19.37;;
12900;SDS011;6518;50.930;5.344;2023-05-10T05:37:52;32.83;;;20.33;;
12900;SDS011;6518;50.930;5.344;2023-05-10T05:40:19;36.80;;;21.20;;
12900;SDS011;6518;50.930;5.344;2023-05-10T05:42:47;35.13;;;22.63;;
12900;SDS011;6518;50.930;5.344;2023-05-10T05:45:14;37.00;;;23.17;;
12900;SDS011;6518;50.930;5.344;2023-05-10T05:47:41;40.17;;;22.60;;
12900;SDS011;6518;50.930;5.344;2023-05-10T05:50:09;39.37;;;22.77;;
12900;SDS011;6518;50.930;5.344;2023-05-10T05:52:36;40.03;;;23.63;;
12900;SDS011;6518;50.930;5.344;2023-05-10T05:55:03;36.73;;;22.13;;
12900;SDS011;6518;50.930;5.344;2023-05-10T05:57:30;40.77;;;24.17;;
12900;SDS011;6518;50.930;5.344;2023-05-10T05:59:59;40.70;;;24.17;;
12900;SDS011;6518;50.930;5.344;2023-05-10T06:02:25;35.03;;;23.00;;
12900;SDS011;6518;50.930;5.344;2023-05-10T06:04:52;40.73;;;24.07;;
12900;SDS011;6518;50.930;5.344;2023-05-10T06:07:19;39.93;;;23.90;;
12900;SDS011;6518;50.930;5.344;2023-05-10T06:09:46;40.93;;;24.70;;
12900;SDS011;6518;50.930;5.344;2023-05-10T06:12:13;36.93;;;23.03;;
12900;SDS011;6518;50.930;5.344;2023-05-10T06:14:40;36.10;;;23.33;;
12900;SDS011;6518;50.930;5.344;2023-05-10T06:17:08;36.57;;;22.77;;
12900;SDS011;6518;50.930;5.344;2023-05-10T06:19:35;34.57;;;20.73;;
12900;SDS011;6518;50.930;5.344;2023-05-10T06:22:02;36.57;;;22.90;;
12900;SDS011;6518;50.930;5.344;2023-05-10T06:24:29;37.20;;;22.90;;
12900;SDS011;6518;50.930;5.344;2023-05-10T06:26:56;39.77;;;22.87;;
12900;SDS011;6518;50.930;5.344;2023-05-10T06:29:25;37.30;;;23.57;;
12900;SDS011;6518;50.930;5.344;2023-05-10T06:31:52;38.13;;;23.87;;
12900;SDS011;6518;50.930;5.344;2023-05-10T06:34:20;35.30;;;23.47;;
12900;SDS011;6518;50.930;5.344;2023-05-10T06:36:47;37.27;;;23.90;;
12900;SDS011;6518;50.930;5.344;2023-05-10T06:39:14;38.30;;;23.83;;
12900;SDS011;6518;50.930;5.344;2023-05-10T06:41:41;39.87;;;23.83;;
12900;SDS011;6518;50.930;5.344;2023-05-10T06:44:08;36.63;;;23.53;;
12900;SDS011;6518;50.930;5.344;2023-05-10T06:46:35;37.60;;;23.40;;
12900;SDS011;6518;50.930;5.344;2023-05-10T06:49:02;35.93;;;22.40;;
12900;SDS011;6518;50.930;5.344;2023-05-10T06:51:30;41.40;;;23.70;;
12900;SDS011;6518;50.930;5.344;2023-05-10T06:53:57;39.33;;;23.40;;
12900;SDS011;6518;50.930;5.344;2023-05-10T06:56:25;37.67;;;22.93;;
12900;SDS011;6518;50.930;5.344;2023-05-10T06:58:52;38.23;;;23.60;;
12900;SDS011;6518;50.930;5.344;2023-05-10T07:01:19;37.33;;;22.93;;
12900;SDS011;6518;50.930;5.344;2023-05-10T07:03:46;37.90;;;22.60;;
12900;SDS011;6518;50.930;5.344;2023-05-10T07:06:12;35.53;;;21.87;;
12900;SDS011;6518;50.930;5.344;2023-05-10T07:08:41;38.43;;;23.87;;
12900;SDS011;6518;50.930;5.344;2023-05-10T07:11:08;38.53;;;21.40;;
12900;SDS011;6518;50.930;5.344;2023-05-10T07:13:35;38.83;;;23.13;;
12900;SDS011;6518;50.930;5.344;2023-05-10T07:16:04;41.33;;;23.67;;
12900;SDS011;6518;50.930;5.344;2023-05-10T07:18:31;40.50;;;23.20;;
12900;SDS011;6518;50.930;5.344;2023-05-10T07:20:58;36.03;;;21.53;;
12900;SDS011;6518;50.930;5.344;2023-05-10T07:23:25;38.13;;;22.67;;
12900;SDS011;6518;50.930;5.344;2023-05-10T07:25:53;39.43;;;22.97;;
12900;SDS011;6518;50.930;5.344;2023-05-10T07:28:22;37.17;;;23.13;;
12900;SDS011;6518;50.930;5.344;2023-05-10T07:30:49;39.13;;;22.50;;
12900;SDS011;6518;50.930;5.344;2023-05-10T07:33:16;37.43;;;22.70;;
12900;SDS011;6518;50.930;5.344;2023-05-10T07:35:43;37.47;;;23.33;;
12900;SDS011;6518;50.930;5.344;2023-05-10T07:38:10;38.83;;;22.93;;
12900;SDS011;6518;50.930;5.344;2023-05-10T07:40:37;32.83;;;21.90;;
12900;SDS011;6518;50.930;5.344;2023-05-10T07:43:06;33.33;;;21.60;;
12900;SDS011;6518;50.930;5.344;2023-05-10T07:45:33;31.13;;;21.47;;
12900;SDS011;6518;50.930;5.344;2023-05-10T07:48:00;34.47;;;22.07;;
12900;SDS011;6518;50.930;5.344;2023-05-10T07:50:26;34.73;;;21.07;;
12900;SDS011;6518;50.930;5.344;2023-05-10T07:52:53;30.80;;;21.23;;
12900;SDS011;6518;50.930;5.344;2023-05-10T07:55:20;27.57;;;19.27;;
12900;SDS011;6518;50.930;5.344;2023-05-10T07:57:47;30.33;;;19.97;;
12900;SDS011;6518;50.930;5.344;2023-05-10T08:00:17;27.40;;;19.53;;
12900;SDS011;6518;50.930;5.344;2023-05-10T08:02:45;28.10;;;18.47;;
12900;SDS011;6518;50.930;5.344;2023-05-10T08:05:13;26.60;;;18.70;;
12900;SDS011;6518;50.930;5.344;2023-05-10T08:07:40;27.23;;;19.20;;
12900;SDS011;6518;50.930;5.344;2023-05-10T08:10:08;25.23;;;17.93;;
12900;SDS011;6518;50.930;5.344;2023-05-10T08:12:36;18.07;;;13.23;;
12900;SDS011;6518;50.930;5.344;2023-05-10T08:15:03;14.17;;;9.33;;
12900;SDS011;6518;50.930;5.344;2023-05-10T08:17:33;9.27;;;6.87;;
12900;SDS011;6518;50.930;5.344;2023-05-10T08:19:59;5.40;;;4.23;;
12900;SDS011;6518;50.930;5.344;2023-05-10T08:22:26;5.90;;;3.67;;
12900;SDS011;6518;50.930;5.344;2023-05-10T08:24:53;3.77;;;3.20;;
12900;SDS011;6518;50.930;5.344;2023-05-10T08:27:21;3.90;;;2.83;;
12900;SDS011;6518;50.930;5.344;2023-05-10T08:29:47;3.47;;;2.60;;
12900;SDS011;6518;50.930;5.344;2023-05-10T08:32:14;5.20;;;2.50;;
12900;SDS011;6518;50.930;5.344;2023-05-10T08:34:43;3.93;;;2.83;;
12900;SDS011;6518;50.930;5.344;2023-05-10T08:37:09;4.07;;;2.63;;
12900;SDS011;6518;50.930;5.344;2023-05-10T08:39:38;5.13;;;3.00;;
12900;SDS011;6518;50.930;5.344;2023-05-10T08:42:05;4.53;;;2.90;;
12900;SDS011;6518;50.930;5.344;2023-05-10T08:44:34;3.67;;;2.70;;
12900;SDS011;6518;50.930;5.344;2023-05-10T08:47:02;2.93;;;2.40;;
12900;SDS011;6518;50.930;5.344;2023-05-10T08:49:31;3.67;;;3.10;;
12900;SDS011;6518;50.930;5.344;2023-05-10T08:52:02;3.77;;;2.90;;
12900;SDS011;6518;50.930;5.344;2023-05-10T08:54:31;3.37;;;3.07;;
12900;SDS011;6518;50.930;5.344;2023-05-10T08:56:58;5.50;;;3.27;;
12900;SDS011;6518;50.930;5.344;2023-05-10T08:59:25;4.57;;;3.30;;
12900;SDS011;6518;50.930;5.344;2023-05-10T09:01:53;4.63;;;3.30;;
12900;SDS011;6518;50.930;5.344;2023-05-10T09:04:21;4.20;;;3.07;;
12900;SDS011;6518;50.930;5.344;2023-05-10T09:06:49;6.00;;;3.63;;
12900;SDS011;6518;50.930;5.344;2023-05-10T09:09:18;4.00;;;3.50;;
12900;SDS011;6518;50.930;5.344;2023-05-10T09:11:46;4.60;;;3.80;;
12900;SDS011;6518;50.930;5.344;2023-05-10T09:14:13;7.13;;;4.00;;
12900;SDS011;6518;50.930;5.344;2023-05-10T09:16:42;4.90;;;3.70;;
12900;SDS011;6518;50.930;5.344;2023-05-10T09:19:09;4.73;;;4.23;;
12900;SDS011;6518;50.930;5.344;2023-05-10T09:21:36;6.73;;;4.37;;
12900;SDS011;6518;50.930;5.344;2023-05-10T09:24:04;4.63;;;3.90;;
12900;SDS011;6518;50.930;5.344;2023-05-10T09:26:33;5.00;;;4.30;;
12900;SDS011;6518;50.930;5.344;2023-05-10T09:29:00;5.57;;;4.30;;
12900;SDS011;6518;50.930;5.344;2023-05-10T09:31:44;7.00;;;4.70;;
12900;SDS011;6518;50.930;5.344;2023-05-10T09:34:15;13.73;;;5.07;;
12900;SDS011;6518;50.930;5.344;2023-05-10T09:36:52;5.87;;;4.40;;
12900;SDS011;6518;50.930;5.344;2023-05-10T09:39:21;5.27;;;4.60;;
12900;SDS011;6518;50.930;5.344;2023-05-10T09:41:58;5.60;;;4.70;;
12900;SDS011;6518;50.930;5.344;2023-05-10T09:44:28;6.67;;;4.70;;
12900;SDS011;6518;50.930;5.344;2023-05-10T09:46:56;8.47;;;4.87;;
12900;SDS011;6518;50.930;5.344;2023-05-10T09:49:23;6.03;;;4.73;;
12900;SDS011;6518;50.930;5.344;2023-05-10T09:52:00;6.87;;;5.27;;
12900;SDS011;6518;50.930;5.344;2023-05-10T09:54:28;5.27;;;4.77;;
12900;SDS011;6518;50.930;5.344;2023-05-10T09:56:56;6.23;;;5.23;;
12900;SDS011;6518;50.930;5.344;2023-05-10T09:59:25;6.43;;;5.40;;
12900;SDS011;6518;50.930;5.344;2023-05-10T10:01:55;6.37;;;5.77;;
12900;SDS011;6518;50.930;5.344;2023-05-10T10:04:23;7.73;;;6.33;;
12900;SDS011;6518;50.930;5.344;2023-05-10T10:07:00;7.57;;;6.80;;
12900;SDS011;6518;50.930;5.344;2023-05-10T10:09:28;8.90;;;6.57;;
12900;SDS011;6518;50.930;5.344;2023-05-10T10:11:55;7.47;;;6.40;;
12900;SDS011;6518;50.930;5.344;2023-05-10T10:14:22;8.73;;;7.03;;
12900;SDS011;6518;50.930;5.344;2023-05-10T10:16:51;9.50;;;7.53;;
12900;SDS011;6518;50.930;5.344;2023-05-10T10:19:18;9.82;;;7.07;;
12900;SDS011;6518;50.930;5.344;2023-05-10T10:21:46;9.10;;;8.02;;
12900;SDS011;6518;50.930;5.344;2023-05-10T10:24:13;12.60;;;8.63;;
12900;SDS011;6518;50.930;5.344;2023-05-10T10:26:39;11.17;;;8.87;;
12900;SDS011;6518;50.930;5.344;2023-05-10T10:29:10;10.33;;;8.63;;
12900;SDS011;6518;50.930;5.344;2023-05-10T10:31:45;11.07;;;9.00;;
12900;SDS011;6518;50.930;5.344;2023-05-10T10:34:21;12.07;;;8.80;;
12900;SDS011;6518;50.930;5.344;2023-05-10T10:36:53;11.03;;;8.77;;
12900;SDS011;6518;50.930;5.344;2023-05-10T10:39:21;10.50;;;8.33;;
12900;SDS011;6518;50.930;5.344;2023-05-10T10:41:50;10.17;;;8.13;;
12900;SDS011;6518;50.930;5.344;2023-05-10T10:44:25;10.43;;;8.27;;
12900;SDS011;6518;50.930;5.344;2023-05-10T10:47:07;10.20;;;8.45;;
12900;SDS011;6518;50.930;5.344;2023-05-10T10:49:51;9.80;;;8.35;;
12900;SDS011;6518;50.930;5.344;2023-05-10T10:52:30;10.18;;;7.75;;
12900;SDS011;6518;50.930;5.344;2023-05-10T10:54:59;11.95;;;7.40;;
12900;SDS011;6518;50.930;5.344;2023-05-10T10:57:28;10.10;;;7.20;;
12900;SDS011;6518;50.930;5.344;2023-05-10T11:02:46;8.35;;;6.65;;
12900;SDS011;6518;50.930;5.344;2023-05-10T11:05:34;8.13;;;6.43;;
12900;SDS011;6518;50.930;5.344;2023-05-10T11:08:10;8.15;;;6.28;;
12900;SDS011;6518;50.930;5.344;2023-05-10T11:10:52;7.65;;;5.97;;
12900;SDS011;6518;50.930;5.344;2023-05-10T11:13:28;7.85;;;6.63;;
12900;SDS011;6518;50.930;5.344;2023-05-10T11:15:56;6.82;;;6.13;;
12900;SDS011;6518;50.930;5.344;2023-05-10T11:18:24;7.55;;;6.05;;
12900;SDS011;6518;50.930;5.344;2023-05-10T11:20:55;6.28;;;5.50;;
12900;SDS011;6518;50.930;5.344;2023-05-10T11:23:28;6.72;;;5.70;;
12900;SDS011;6518;50.930;5.344;2023-05-10T11:25:56;6.57;;;5.82;;
12900;SDS011;6518;50.930;5.344;2023-05-10T11:28:23;6.03;;;5.32;;
12900;SDS011;6518;50.930;5.344;2023-05-10T11:30:51;5.57;;;5.00;;
12900;SDS011;6518;50.930;5.344;2023-05-10T11:33:19;6.40;;;5.30;;
12900;SDS011;6518;50.930;5.344;2023-05-10T11:35:46;5.43;;;4.60;;
12900;SDS011;6518;50.930;5.344;2023-05-10T11:38:14;5.25;;;4.75;;
12900;SDS011;6518;50.930;5.344;2023-05-10T11:40:41;5.55;;;5.05;;
12900;SDS011;6518;50.930;5.344;2023-05-10T11:43:09;6.10;;;4.53;;
12900;SDS011;6518;50.930;5.344;2023-05-10T11:45:37;6.28;;;4.68;;
12900;SDS011;6518;50.930;5.344;2023-05-10T11:48:06;5.70;;;4.70;;
12900;SDS011;6518;50.930;5.344;2023-05-10T11:50:33;6.10;;;4.65;;
12900;SDS011;6518;50.930;5.344;2023-05-10T11:53:00;6.78;;;5.10;;
12900;SDS011;6518;50.930;5.344;2023-05-10T11:55:29;4.68;;;4.15;;
12900;SDS011;6518;50.930;5.344;2023-05-10T11:58:00;7.18;;;4.85;;
12900;SDS011;6518;50.930;5.344;2023-05-10T12:00:28;5.30;;;4.00;;
12900;SDS011;6518;50.930;5.344;2023-05-10T12:02:56;6.00;;;4.88;;
12900;SDS011;6518;50.930;5.344;2023-05-10T12:05:23;5.05;;;4.30;;
12900;SDS011;6518;50.930;5.344;2023-05-10T12:07:51;5.88;;;4.75;;
12900;SDS011;6518;50.930;5.344;2023-05-10T12:10:23;4.18;;;3.60;;
12900;SDS011;6518;50.930;5.344;2023-05-10T12:12:53;4.20;;;3.80;;
12900;SDS011;6518;50.930;5.344;2023-05-10T12:15:23;4.75;;;3.85;;
12900;SDS011;6518;50.930;5.344;2023-05-10T12:17:50;4.90;;;3.45;;
12900;SDS011;6518;50.930;5.344;2023-05-10T12:20:18;6.38;;;3.65;;
12900;SDS011;6518;50.930;5.344;2023-05-10T12:22:47;3.85;;;3.42;;
12900;SDS011;6518;50.930;5.344;2023-05-10T12:25:16;3.97;;;3.50;;
12900;SDS011;6518;50.930;5.344;2023-05-10T12:27:50;4.45;;;3.45;;
12900;SDS011;6518;50.930;5.344;2023-05-10T12:30:23;4.63;;;3.22;;
12900;SDS011;6518;50.930;5.344;2023-05-10T12:32:51;3.67;;;3.13;;
12900;SDS011;6518;50.930;5.344;2023-05-10T12:35:18;5.75;;;3.80;;
12900;SDS011;6518;50.930;5.344;2023-05-10T12:37:47;3.83;;;3.40;;
12900;SDS011;6518;50.930;5.344;2023-05-10T12:40:14;3.80;;;3.50;;
12900;SDS011;6518;50.930;5.344;2023-05-10T12:42:41;3.83;;;3.40;;
12900;SDS011;6518;50.930;5.344;2023-05-10T12:45:10;4.03;;;3.45;;
12900;SDS011;6518;50.930;5.344;2023-05-10T12:47:38;4.43;;;3.10;;
12900;SDS011;6518;50.930;5.344;2023-05-10T12:50:06;4.45;;;3.30;;
12900;SDS011;6518;50.930;5.344;2023-05-10T12:52:33;3.72;;;3.30;;
12900;SDS011;6518;50.930;5.344;2023-05-10T12:55:00;3.78;;;3.22;;
12900;SDS011;6518;50.930;5.344;2023-05-10T12:57:28;5.13;;;3.58;;
12900;SDS011;6518;50.930;5.344;2023-05-10T12:59:55;3.08;;;2.78;;
12900;SDS011;6518;50.930;5.344;2023-05-10T13:02:22;3.75;;;3.15;;
12900;SDS011;6518;50.930;5.344;2023-05-10T13:04:51;2.97;;;2.67;;
12900;SDS011;6518;50.930;5.344;2023-05-10T13:07:17;4.22;;;2.45;;
12900;SDS011;6518;50.930;5.344;2023-05-10T13:09:45;2.63;;;2.30;;
12900;SDS011;6518;50.930;5.344;2023-05-10T13:12:11;4.50;;;2.67;;
12900;SDS011;6518;50.930;5.344;2023-05-10T13:14:38;3.42;;;2.80;;
12900;SDS011;6518;50.930;5.344;2023-05-10T13:17:06;2.80;;;2.33;;
12900;SDS011;6518;50.930;5.344;2023-05-10T13:19:33;3.22;;;2.38;;
12900;SDS011;6518;50.930;5.344;2023-05-10T13:22:02;2.95;;;2.58;;
12900;SDS011;6518;50.930;5.344;2023-05-10T13:24:29;2.53;;;2.20;;
12900;SDS011;6518;50.930;5.344;2023-05-10T13:26:56;2.42;;;2.15;;
12900;SDS011;6518;50.930;5.344;2023-05-10T13:29:23;2.47;;;2.28;;
12900;SDS011;6518;50.930;5.344;2023-05-10T13:31:50;3.55;;;2.67;;
12900;SDS011;6518;50.930;5.344;2023-05-10T13:34:16;2.40;;;2.13;;
12900;SDS011;6518;50.930;5.344;2023-05-10T13:36:45;2.75;;;2.55;;
12900;SDS011;6518;50.930;5.344;2023-05-10T13:39:14;3.22;;;2.50;;
12900;SDS011;6518;50.930;5.344;2023-05-10T13:41:41;2.25;;;2.05;;
12900;SDS011;6518;50.930;5.344;2023-05-10T13:44:08;6.22;;;1.95;;
12900;SDS011;6518;50.930;5.344;2023-05-10T13:46:35;2.25;;;2.05;;
12900;SDS011;6518;50.930;5.344;2023-05-10T13:49:03;4.28;;;2.55;;
12900;SDS011;6518;50.930;5.344;2023-05-10T13:51:31;2.20;;;2.00;;
12900;SDS011;6518;50.930;5.344;2023-05-10T13:53:59;2.00;;;1.80;;
12900;SDS011;6518;50.930;5.344;2023-05-10T13:56:28;2.72;;;2.00;;
12900;SDS011;6518;50.930;5.344;2023-05-10T13:58:55;2.20;;;2.00;;
12900;SDS011;6518;50.930;5.344;2023-05-10T14:01:23;2.25;;;1.67;;
12900;SDS011;6518;50.930;5.344;2023-05-10T14:03:50;1.88;;;1.75;;
12900;SDS011;6518;50.930;5.344;2023-05-10T14:06:17;2.08;;;1.88;;
12900;SDS011;6518;50.930;5.344;2023-05-10T14:08:45;2.00;;;1.60;;
12900;SDS011;6518;50.930;5.344;2023-05-10T14:11:12;3.00;;;2.30;;
12900;SDS011;6518;50.930;5.344;2023-05-10T14:13:41;3.53;;;2.10;;
12900;SDS011;6518;50.930;5.344;2023-05-10T14:16:08;2.30;;;2.10;;
12900;SDS011;6518;50.930;5.344;2023-05-10T14:18:35;3.28;;;2.20;;
12900;SDS011;6518;50.930;5.344;2023-05-10T14:21:03;2.53;;;2.33;;
12900;SDS011;6518;50.930;5.344;2023-05-10T14:23:30;2.80;;;2.50;;
12900;SDS011;6518;50.930;5.344;2023-05-10T14:25:57;2.85;;;2.50;;
12900;SDS011;6518;50.930;5.344;2023-05-10T14:28:24;2.53;;;2.33;;
12900;SDS011;6518;50.930;5.344;2023-05-10T14:30:53;2.53;;;2.20;;
12900;SDS011;6518;50.930;5.344;2023-05-10T14:33:20;2.33;;;2.13;;
12900;SDS011;6518;50.930;5.344;2023-05-10T14:35:48;2.80;;;2.30;;
12900;SDS011;6518;50.930;5.344;2023-05-10T14:38:15;3.22;;;2.60;;
12900;SDS011;6518;50.930;5.344;2023-05-10T14:40:42;2.47;;;2.28;;
12900;SDS011;6518;50.930;5.344;2023-05-10T14:43:09;3.40;;;2.30;;
12900;SDS011;6518;50.930;5.344;2023-05-10T14:45:35;2.45;;;1.90;;
12900;SDS011;6518;50.930;5.344;2023-05-10T14:48:04;2.58;;;2.13;;
12900;SDS011;6518;50.930;5.344;2023-05-10T14:50:31;2.35;;;2.13;;
12900;SDS011;6518;50.930;5.344;2023-05-10T14:52:59;1.95;;;1.70;;
12900;SDS011;6518;50.930;5.344;2023-05-10T14:55:26;3.33;;;2.20;;
12900;SDS011;6518;50.930;5.344;2023-05-10T14:57:53;3.00;;;2.25;;
12900;SDS011;6518;50.930;5.344;2023-05-10T15:00:20;2.30;;;2.08;;